sensor_id;sensor_type;location;lat;lon;timestamp;pressure;altitude;pressure_sealevel;temperature;humidity
2675;BME280;1347;42.122;24.746;2023-02-07T00:00:50;101123.91;;;-0.35;57.68
2675;BME280;1347;42.122;24.746;2023-02-07T00:03:17;101126.84;;;-0.37;57.63
2675;BME280;1347;42.122;24.746;2023-02-07T00:05:44;101133.78;;;-0.46;57.98
2675;BME280;1347;42.122;24.746;2023-02-07T00:08:11;101134.53;;;-0.50;58.23
2675;BME280;1347;42.122;24.746;2023-02-07T00:10:41;101143.72;;;-0.51;58.26
2675;BME280;1347;42.122;24.746;2023-02-07T00:13:08;101141.63;;;-0.44;58.45
2675;BME280;1347;42.122;24.746;2023-02-07T00:15:34;101145.41;;;-0.40;58.45
2675;BME280;1347;42.122;24.746;2023-02-07T00:18:01;101149.19;;;-0.41;58.84
2675;BME280;1347;42.122;24.746;2023-02-07T00:20:28;101151.66;;;-0.34;58.76
2675;BME280;1347;42.122;24.746;2023-02-07T00:22:55;101146.50;;;-0.41;58.93
2675;BME280;1347;42.122;24.746;2023-02-07T00:25:22;101147.59;;;-0.37;58.84
2675;BME280;1347;42.122;24.746;2023-02-07T00:27:50;101156.25;;;-0.35;59.19
2675;BME280;1347;42.122;24.746;2023-02-07T00:30:17;101158.94;;;-0.35;59.24
2675;BME280;1347;42.122;24.746;2023-02-07T00:32:44;101164.63;;;-0.31;59.06
2675;BME280;1347;42.122;24.746;2023-02-07T00:35:11;101164.34;;;-0.30;59.07
2675;BME280;1347;42.122;24.746;2023-02-07T00:37:38;101164.97;;;-0.23;58.58
2675;BME280;1347;42.122;24.746;2023-02-07T00:40:06;101171.75;;;-0.15;58.64
2675;BME280;1347;42.122;24.746;2023-02-07T00:42:33;101169.13;;;-0.42;59.29
2675;BME280;1347;42.122;24.746;2023-02-07T00:45:01;101163.44;;;-0.41;59.87
2675;BME280;1347;42.122;24.746;2023-02-07T00:47:28;101170.94;;;-0.48;60.37
2675;BME280;1347;42.122;24.746;2023-02-07T00:49:55;101174.44;;;-0.47;60.59
2675;BME280;1347;42.122;24.746;2023-02-07T00:52:21;101178.81;;;-0.68;60.42
2675;BME280;1347;42.122;24.746;2023-02-07T00:54:48;101183.41;;;-0.68;60.82
2675;BME280;1347;42.122;24.746;2023-02-07T00:57:15;101179.50;;;-0.83;61.77
2675;BME280;1347;42.122;24.746;2023-02-07T00:59:42;101180.66;;;-0.73;61.90
2675;BME280;1347;42.122;24.746;2023-02-07T01:02:10;101177.97;;;-0.73;62.25
2675;BME280;1347;42.122;24.746;2023-02-07T01:04:37;101172.34;;;-0.72;62.30
2675;BME280;1347;42.122;24.746;2023-02-07T01:07:04;101164.53;;;-0.68;61.99
2675;BME280;1347;42.122;24.746;2023-02-07T01:09:31;101163.13;;;-0.76;62.04
2675;BME280;1347;42.122;24.746;2023-02-07T01:11:58;101167.50;;;-0.70;62.13
2675;BME280;1347;42.122;24.746;2023-02-07T01:14:25;101163.38;;;-0.78;63.00
2675;BME280;1347;42.122;24.746;2023-02-07T01:16:52;101162.78;;;-0.85;62.85
2675;BME280;1347;42.122;24.746;2023-02-07T01:19:21;101160.91;;;-0.84;61.85
2675;BME280;1347;42.122;24.746;2023-02-07T01:21:48;101154.34;;;-0.93;61.61
2675;BME280;1347;42.122;24.746;2023-02-07T01:24:15;101156.97;;;-0.98;62.21
2675;BME280;1347;42.122;24.746;2023-02-07T01:26:42;101151.13;;;-0.90;61.81
2675;BME280;1347;42.122;24.746;2023-02-07T01:29:13;101155.66;;;-0.96;61.65
2675;BME280;1347;42.122;24.746;2023-02-07T01:31:40;101163.63;;;-1.06;62.14
2675;BME280;1347;42.122;24.746;2023-02-07T01:34:10;101156.22;;;-0.94;62.48
2675;BME280;1347;42.122;24.746;2023-02-07T01:36:39;101155.41;;;-0.94;62.62
2675;BME280;1347;42.122;24.746;2023-02-07T01:39:06;101149.66;;;-1.03;62.49
2675;BME280;1347;42.122;24.746;2023-02-07T01:41:34;101150.50;;;-1.02;62.91
2675;BME280;1347;42.122;24.746;2023-02-07T01:44:03;101153.34;;;-1.09;63.46
2675;BME280;1347;42.122;24.746;2023-02-07T01:46:31;101147.97;;;-1.09;63.63
2675;BME280;1347;42.122;24.746;2023-02-07T01:49:02;101158.56;;;-1.02;63.66
2675;BME280;1347;42.122;24.746;2023-02-07T01:51:31;101153.09;;;-1.07;63.66
2675;BME280;1347;42.122;24.746;2023-02-07T01:54:03;101153.72;;;-1.00;63.66
2675;BME280;1347;42.122;24.746;2023-02-07T01:56:32;101147.50;;;-1.01;63.75
2675;BME280;1347;42.122;24.746;2023-02-07T01:59:02;101145.59;;;-1.05;63.91
2675;BME280;1347;42.122;24.746;2023-02-07T02:01:30;101141.63;;;-1.25;64.84
2675;BME280;1347;42.122;24.746;2023-02-07T02:03:57;101147.03;;;-1.41;65.62
2675;BME280;1347;42.122;24.746;2023-02-07T02:06:27;101142.84;;;-1.32;65.76
2675;BME280;1347;42.122;24.746;2023-02-07T02:08:56;101154.19;;;-1.30;65.89
2675;BME280;1347;42.122;24.746;2023-02-07T02:14:29;101145.03;;;-1.29;65.86
2675;BME280;1347;42.122;24.746;2023-02-07T02:17:08;101138.03;;;-1.30;66.18
2675;BME280;1347;42.122;24.746;2023-02-07T02:23:10;101149.25;;;-1.38;66.58
2675;BME280;1347;42.122;24.746;2023-02-07T02:35:03;101156.94;;;-1.47;66.97
2675;BME280;1347;42.122;24.746;2023-02-07T02:37:41;101153.19;;;-1.46;67.00
2675;BME280;1347;42.122;24.746;2023-02-07T02:40:17;101155.69;;;-1.39;67.02
2675;BME280;1347;42.122;24.746;2023-02-07T02:42:51;101151.69;;;-1.37;67.34
2675;BME280;1347;42.122;24.746;2023-02-07T02:45:24;101148.44;;;-1.39;67.65
2675;BME280;1347;42.122;24.746;2023-02-07T02:47:53;101155.88;;;-1.46;67.87
2675;BME280;1347;42.122;24.746;2023-02-07T02:50:24;101143.56;;;-1.64;68.23
2675;BME280;1347;42.122;24.746;2023-02-07T02:52:52;101152.03;;;-1.72;69.09
2675;BME280;1347;42.122;24.746;2023-02-07T02:55:28;101151.06;;;-1.66;69.18
2675;BME280;1347;42.122;24.746;2023-02-07T02:58:04;101145.28;;;-1.74;69.44
2675;BME280;1347;42.122;24.746;2023-02-07T03:00:44;101145.63;;;-1.88;70.08
2675;BME280;1347;42.122;24.746;2023-02-07T03:03:25;101149.63;;;-1.90;70.62
2675;BME280;1347;42.122;24.746;2023-02-07T03:06:05;101154.09;;;-1.79;70.44
2675;BME280;1347;42.122;24.746;2023-02-07T03:08:42;101149.47;;;-1.83;70.48
2675;BME280;1347;42.122;24.746;2023-02-07T03:11:13;101149.53;;;-1.78;70.27
2675;BME280;1347;42.122;24.746;2023-02-07T03:13:53;101146.59;;;-1.77;70.08
2675;BME280;1347;42.122;24.746;2023-02-07T03:16:29;101151.72;;;-1.75;70.04
2675;BME280;1347;42.122;24.746;2023-02-07T03:19:03;101152.03;;;-1.72;70.28
2675;BME280;1347;42.122;24.746;2023-02-07T03:21:36;101154.59;;;-1.60;70.19
2675;BME280;1347;42.122;24.746;2023-02-07T03:24:07;101161.41;;;-1.53;69.83
2675;BME280;1347;42.122;24.746;2023-02-07T03:26:37;101155.63;;;-1.44;69.52
2675;BME280;1347;42.122;24.746;2023-02-07T03:29:07;101167.34;;;-1.34;69.17
2675;BME280;1347;42.122;24.746;2023-02-07T03:31:37;101166.53;;;-1.34;69.17
2675;BME280;1347;42.122;24.746;2023-02-07T03:34:08;101169.38;;;-1.41;69.84
2675;BME280;1347;42.122;24.746;2023-02-07T03:36:41;101165.00;;;-1.47;70.51
2675;BME280;1347;42.122;24.746;2023-02-07T03:39:12;101173.81;;;-1.52;70.61
2675;BME280;1347;42.122;24.746;2023-02-07T03:41:41;101161.13;;;-1.56;70.53
2675;BME280;1347;42.122;24.746;2023-02-07T03:44:12;101172.31;;;-1.64;70.48
2675;BME280;1347;42.122;24.746;2023-02-07T03:46:40;101164.06;;;-1.58;69.65
2675;BME280;1347;42.122;24.746;2023-02-07T03:49:07;101163.88;;;-1.51;69.18
2675;BME280;1347;42.122;24.746;2023-02-07T03:51:36;101165.56;;;-1.45;69.01
2675;BME280;1347;42.122;24.746;2023-02-07T03:54:04;101160.56;;;-1.36;69.33
2675;BME280;1347;42.122;24.746;2023-02-07T03:56:31;101159.56;;;-1.30;68.37
2675;BME280;1347;42.122;24.746;2023-02-07T03:58:58;101167.47;;;-1.24;68.35
2675;BME280;1347;42.122;24.746;2023-02-07T04:01:25;101163.25;;;-1.36;68.85
2675;BME280;1347;42.122;24.746;2023-02-07T04:03:52;101168.50;;;-1.46;69.43
2675;BME280;1347;42.122;24.746;2023-02-07T04:06:19;101163.06;;;-1.30;68.93
2675;BME280;1347;42.122;24.746;2023-02-07T04:08:46;101163.13;;;-1.25;68.49
2675;BME280;1347;42.122;24.746;2023-02-07T04:11:14;101166.94;;;-1.21;68.16
2675;BME280;1347;42.122;24.746;2023-02-07T04:13:41;101162.25;;;-1.08;67.91
2675;BME280;1347;42.122;24.746;2023-02-07T04:16:08;101164.75;;;-1.02;67.38
2675;BME280;1347;42.122;24.746;2023-02-07T04:18:35;101171.25;;;-0.98;67.43
2675;BME280;1347;42.122;24.746;2023-02-07T04:21:04;101176.06;;;-1.00;67.29
2675;BME280;1347;42.122;24.746;2023-02-07T04:23:33;101171.84;;;-0.91;67.26
2675;BME280;1347;42.122;24.746;2023-02-07T04:26:01;101174.94;;;-0.82;67.42
2675;BME280;1347;42.122;24.746;2023-02-07T04:28:29;101185.38;;;-0.86;67.61
2675;BME280;1347;42.122;24.746;2023-02-07T04:30:56;101176.59;;;-0.76;66.71
2675;BME280;1347;42.122;24.746;2023-02-07T04:33:23;101182.72;;;-0.81;67.36
2675;BME280;1347;42.122;24.746;2023-02-07T04:35:53;101181.00;;;-0.92;67.85
2675;BME280;1347;42.122;24.746;2023-02-07T04:38:20;101190.16;;;-0.93;67.67
2675;BME280;1347;42.122;24.746;2023-02-07T04:40:47;101184.66;;;-1.03;68.09
2675;BME280;1347;42.122;24.746;2023-02-07T04:43:14;101188.53;;;-1.16;68.80
2675;BME280;1347;42.122;24.746;2023-02-07T04:45:44;101194.59;;;-1.25;68.58
2675;BME280;1347;42.122;24.746;2023-02-07T04:48:11;101199.28;;;-1.37;69.27
2675;BME280;1347;42.122;24.746;2023-02-07T04:50:38;101203.47;;;-1.46;70.64
2675;BME280;1347;42.122;24.746;2023-02-07T04:53:05;101211.72;;;-1.53;72.45
2675;BME280;1347;42.122;24.746;2023-02-07T04:55:32;101201.63;;;-1.63;72.75
2675;BME280;1347;42.122;24.746;2023-02-07T04:58:01;101201.63;;;-1.63;73.86
2675;BME280;1347;42.122;24.746;2023-02-07T05:00:28;101204.63;;;-1.59;74.11
2675;BME280;1347;42.122;24.746;2023-02-07T05:02:57;101213.94;;;-1.67;75.34
2675;BME280;1347;42.122;24.746;2023-02-07T05:05:24;101210.34;;;-1.72;75.61
2675;BME280;1347;42.122;24.746;2023-02-07T05:07:51;101212.50;;;-1.74;75.63
2675;BME280;1347;42.122;24.746;2023-02-07T05:10:18;101207.19;;;-1.69;75.36
2675;BME280;1347;42.122;24.746;2023-02-07T05:12:44;101214.66;;;-1.55;74.37
2675;BME280;1347;42.122;24.746;2023-02-07T05:15:11;101220.19;;;-1.44;72.69
2675;BME280;1347;42.122;24.746;2023-02-07T05:17:38;101227.25;;;-1.38;72.92
2675;BME280;1347;42.122;24.746;2023-02-07T05:20:08;101228.06;;;-1.38;72.60
2675;BME280;1347;42.122;24.746;2023-02-07T05:22:35;101228.13;;;-1.33;70.24
2675;BME280;1347;42.122;24.746;2023-02-07T05:25:02;101225.50;;;-1.28;68.84
2675;BME280;1347;42.122;24.746;2023-02-07T05:27:29;101227.13;;;-1.27;68.10
2675;BME280;1347;42.122;24.746;2023-02-07T05:29:56;101226.31;;;-1.27;68.22
2675;BME280;1347;42.122;24.746;2023-02-07T05:32:23;101227.59;;;-1.13;68.16
2675;BME280;1347;42.122;24.746;2023-02-07T05:35:09;101223.63;;;-1.27;68.61
2675;BME280;1347;42.122;24.746;2023-02-07T05:37:36;101226.19;;;-1.37;69.06
2675;BME280;1347;42.122;24.746;2023-02-07T05:40:04;101234.81;;;-1.35;69.08
2675;BME280;1347;42.122;24.746;2023-02-07T05:42:30;101236.44;;;-1.34;69.27
2675;BME280;1347;42.122;24.746;2023-02-07T05:44:57;101241.44;;;-1.43;70.28
2675;BME280;1347;42.122;24.746;2023-02-07T05:47:24;101241.59;;;-1.50;70.63
2675;BME280;1347;42.122;24.746;2023-02-07T05:49:51;101240.72;;;-1.55;69.88
2675;BME280;1347;42.122;24.746;2023-02-07T05:52:19;101246.59;;;-1.58;70.72
2675;BME280;1347;42.122;24.746;2023-02-07T05:54:46;101245.53;;;-1.57;71.31
2675;BME280;1347;42.122;24.746;2023-02-07T05:57:13;101260.75;;;-1.46;71.20
2675;BME280;1347;42.122;24.746;2023-02-07T05:59:40;101258.22;;;-1.36;71.49
2675;BME280;1347;42.122;24.746;2023-02-07T06:02:07;101262.59;;;-1.30;71.08
2675;BME280;1347;42.122;24.746;2023-02-07T06:04:34;101263.16;;;-1.28;70.60
2675;BME280;1347;42.122;24.746;2023-02-07T06:07:01;101265.50;;;-1.15;70.17
2675;BME280;1347;42.122;24.746;2023-02-07T06:09:29;101262.94;;;-1.04;69.62
2675;BME280;1347;42.122;24.746;2023-02-07T06:11:56;101265.13;;;-1.01;67.78
2675;BME280;1347;42.122;24.746;2023-02-07T06:14:23;101259.44;;;-1.05;67.42
2675;BME280;1347;42.122;24.746;2023-02-07T06:16:49;101256.63;;;-1.15;67.28
2675;BME280;1347;42.122;24.746;2023-02-07T06:19:16;101260.56;;;-1.23;67.19
2675;BME280;1347;42.122;24.746;2023-02-07T06:21:43;101268.06;;;-1.25;67.62
2675;BME280;1347;42.122;24.746;2023-02-07T06:24:10;101271.66;;;-1.36;68.14
2675;BME280;1347;42.122;24.746;2023-02-07T06:26:38;101269.59;;;-1.29;68.27
2675;BME280;1347;42.122;24.746;2023-02-07T06:29:05;101270.22;;;-1.22;67.50
2675;BME280;1347;42.122;24.746;2023-02-07T06:31:32;101269.31;;;-1.11;67.36
2675;BME280;1347;42.122;24.746;2023-02-07T06:33:59;101273.06;;;-1.12;66.97
2675;BME280;1347;42.122;24.746;2023-02-07T06:36:26;101267.03;;;-1.02;66.98
2675;BME280;1347;42.122;24.746;2023-02-07T06:38:53;101273.50;;;-0.98;66.95
2675;BME280;1347;42.122;24.746;2023-02-07T06:41:20;101269.50;;;-0.95;66.97
2675;BME280;1347;42.122;24.746;2023-02-07T06:43:48;101282.84;;;-0.84;66.31
2675;BME280;1347;42.122;24.746;2023-02-07T06:46:15;101283.22;;;-0.75;66.11
2675;BME280;1347;42.122;24.746;2023-02-07T06:48:42;101284.53;;;-0.78;64.92
2675;BME280;1347;42.122;24.746;2023-02-07T06:51:09;101285.97;;;-0.70;64.92
2675;BME280;1347;42.122;24.746;2023-02-07T06:53:36;101281.88;;;-0.51;64.97
2675;BME280;1347;42.122;24.746;2023-02-07T06:56:03;101287.81;;;-0.49;65.92
2675;BME280;1347;42.122;24.746;2023-02-07T06:58:30;101295.72;;;-0.42;64.45
2675;BME280;1347;42.122;24.746;2023-02-07T07:01:02;101289.28;;;-0.41;65.40
2675;BME280;1347;42.122;24.746;2023-02-07T07:03:29;101294.13;;;-0.38;65.12
2675;BME280;1347;42.122;24.746;2023-02-07T07:05:56;101284.28;;;-0.27;64.50
2675;BME280;1347;42.122;24.746;2023-02-07T07:08:24;101290.25;;;-0.20;63.75
2675;BME280;1347;42.122;24.746;2023-02-07T07:10:51;101281.31;;;-0.31;65.34
2675;BME280;1347;42.122;24.746;2023-02-07T07:13:18;101282.78;;;-0.40;65.44
2675;BME280;1347;42.122;24.746;2023-02-07T07:15:45;101281.94;;;-0.46;65.75
2675;BME280;1347;42.122;24.746;2023-02-07T07:18:13;101282.16;;;-0.52;65.98
2675;BME280;1347;42.122;24.746;2023-02-07T07:20:40;101280.09;;;-0.40;66.00
2675;BME280;1347;42.122;24.746;2023-02-07T07:23:07;101277.41;;;-0.40;65.86
2675;BME280;1347;42.122;24.746;2023-02-07T07:25:34;101282.97;;;-0.25;65.80
2675;BME280;1347;42.122;24.746;2023-02-07T07:28:01;101271.13;;;-0.24;66.04
2675;BME280;1347;42.122;24.746;2023-02-07T07:30:28;101279.59;;;-0.10;66.15
2675;BME280;1347;42.122;24.746;2023-02-07T07:32:55;101277.38;;;1.65;62.57
2675;BME280;1347;42.122;24.746;2023-02-07T07:35:23;101283.31;;;2.94;58.19
2675;BME280;1347;42.122;24.746;2023-02-07T07:37:50;101278.19;;;2.67;57.16
2675;BME280;1347;42.122;24.746;2023-02-07T07:40:17;101276.91;;;2.39;57.45
2675;BME280;1347;42.122;24.746;2023-02-07T07:42:44;101279.22;;;3.02;56.79
2675;BME280;1347;42.122;24.746;2023-02-07T07:45:11;101285.28;;;3.87;54.04
2675;BME280;1347;42.122;24.746;2023-02-07T07:47:38;101284.66;;;4.00;53.11
2675;BME280;1347;42.122;24.746;2023-02-07T07:50:06;101290.19;;;4.24;51.79
2675;BME280;1347;42.122;24.746;2023-02-07T07:52:35;101280.78;;;3.67;53.20
2675;BME280;1347;42.122;24.746;2023-02-07T07:55:02;101286.09;;;3.43;54.10
2675;BME280;1347;42.122;24.746;2023-02-07T07:57:29;101285.31;;;3.32;53.77
2675;BME280;1347;42.122;24.746;2023-02-07T07:59:55;101281.03;;;3.21;54.91
2675;BME280;1347;42.122;24.746;2023-02-07T08:02:22;101279.50;;;4.03;53.68
2675;BME280;1347;42.122;24.746;2023-02-07T08:04:49;101275.00;;;4.52;52.75
2675;BME280;1347;42.122;24.746;2023-02-07T08:07:16;101279.72;;;5.41;50.69
2675;BME280;1347;42.122;24.746;2023-02-07T08:09:45;101286.47;;;6.05;48.70
2675;BME280;1347;42.122;24.746;2023-02-07T08:12:12;101287.63;;;7.10;45.43
2675;BME280;1347;42.122;24.746;2023-02-07T08:14:38;101281.97;;;8.28;43.01
2675;BME280;1347;42.122;24.746;2023-02-07T08:17:05;101277.00;;;10.31;39.46
2675;BME280;1347;42.122;24.746;2023-02-07T08:19:32;101282.00;;;10.21;38.57
2675;BME280;1347;42.122;24.746;2023-02-07T08:21:59;101274.03;;;11.68;37.77
2675;BME280;1347;42.122;24.746;2023-02-07T08:24:26;101285.28;;;14.91;33.38
2675;BME280;1347;42.122;24.746;2023-02-07T08:26:54;101276.59;;;17.40;29.60
2675;BME280;1347;42.122;24.746;2023-02-07T08:29:21;101272.19;;;17.91;28.08
2675;BME280;1347;42.122;24.746;2023-02-07T08:31:48;101273.47;;;14.47;30.11
2675;BME280;1347;42.122;24.746;2023-02-07T08:34:15;101258.91;;;16.34;29.11
2675;BME280;1347;42.122;24.746;2023-02-07T08:36:43;101271.72;;;18.16;25.97
2675;BME280;1347;42.122;24.746;2023-02-07T08:39:10;101271.97;;;19.69;25.43
2675;BME280;1347;42.122;24.746;2023-02-07T08:41:37;101268.25;;;20.27;24.34
2675;BME280;1347;42.122;24.746;2023-02-07T08:44:05;101265.66;;;21.19;24.37
2675;BME280;1347;42.122;24.746;2023-02-07T08:46:32;101263.31;;;22.40;22.84
2675;BME280;1347;42.122;24.746;2023-02-07T08:48:59;101267.75;;;24.47;21.59
2675;BME280;1347;42.122;24.746;2023-02-07T08:51:26;101262.41;;;25.33;19.80
2675;BME280;1347;42.122;24.746;2023-02-07T08:53:53;101254.44;;;25.75;20.13
2675;BME280;1347;42.122;24.746;2023-02-07T08:56:20;101257.81;;;27.88;18.90
2675;BME280;1347;42.122;24.746;2023-02-07T08:58:47;101263.78;;;28.44;18.27
2675;BME280;1347;42.122;24.746;2023-02-07T09:01:15;101250.91;;;28.17;18.48
2675;BME280;1347;42.122;24.746;2023-02-07T09:03:42;101248.09;;;28.17;17.67
2675;BME280;1347;42.122;24.746;2023-02-07T09:06:09;101249.94;;;25.77;18.09
2675;BME280;1347;42.122;24.746;2023-02-07T09:08:36;101259.13;;;24.34;18.48
2675;BME280;1347;42.122;24.746;2023-02-07T09:11:03;101251.38;;;25.65;18.24
2675;BME280;1347;42.122;24.746;2023-02-07T09:13:30;101255.94;;;27.07;18.30
2675;BME280;1347;42.122;24.746;2023-02-07T09:15:57;101249.56;;;27.19;17.80
2675;BME280;1347;42.122;24.746;2023-02-07T09:18:26;101242.25;;;25.61;17.46
2675;BME280;1347;42.122;24.746;2023-02-07T09:20:52;101241.41;;;25.18;18.40
2675;BME280;1347;42.122;24.746;2023-02-07T09:23:19;101246.44;;;23.58;18.11
2675;BME280;1347;42.122;24.746;2023-02-07T09:25:47;101244.91;;;20.74;19.62
2675;BME280;1347;42.122;24.746;2023-02-07T09:28:15;101240.69;;;19.94;20.02
2675;BME280;1347;42.122;24.746;2023-02-07T09:30:44;101233.66;;;20.32;19.99
2675;BME280;1347;42.122;24.746;2023-02-07T09:33:12;101222.53;;;20.32;20.34
2675;BME280;1347;42.122;24.746;2023-02-07T09:35:42;101236.97;;;20.94;20.05
2675;BME280;1347;42.122;24.746;2023-02-07T09:38:12;101232.00;;;20.09;20.19
2675;BME280;1347;42.122;24.746;2023-02-07T09:40:40;101218.63;;;20.89;20.18
2675;BME280;1347;42.122;24.746;2023-02-07T09:43:14;101220.19;;;21.47;19.62
2675;BME280;1347;42.122;24.746;2023-02-07T09:45:51;101222.19;;;20.62;19.84
2675;BME280;1347;42.122;24.746;2023-02-07T09:48:21;101208.66;;;20.56;19.71
2675;BME280;1347;42.122;24.746;2023-02-07T09:50:54;101204.53;;;20.01;19.90
2675;BME280;1347;42.122;24.746;2023-02-07T09:53:26;101189.47;;;20.27;20.09
2675;BME280;1347;42.122;24.746;2023-02-07T09:55:55;101199.28;;;19.81;20.15
2675;BME280;1347;42.122;24.746;2023-02-07T09:58:31;101184.22;;;17.06;21.91
2675;BME280;1347;42.122;24.746;2023-02-07T10:01:02;101194.28;;;17.70;21.73
2675;BME280;1347;42.122;24.746;2023-02-07T10:03:31;101184.59;;;16.78;21.68
2675;BME280;1347;42.122;24.746;2023-02-07T10:06:06;101198.13;;;18.32;21.55
2675;BME280;1347;42.122;24.746;2023-02-07T10:08:38;101180.03;;;18.46;21.45
2675;BME280;1347;42.122;24.746;2023-02-07T10:11:12;101165.53;;;17.85;21.43
2675;BME280;1347;42.122;24.746;2023-02-07T10:13:53;101166.47;;;15.96;22.84
2675;BME280;1347;42.122;24.746;2023-02-07T10:16:38;101164.31;;;13.90;24.28
2675;BME280;1347;42.122;24.746;2023-02-07T10:19:12;101164.00;;;12.18;25.50
2675;BME280;1347;42.122;24.746;2023-02-07T10:21:50;101167.41;;;10.90;25.93
2675;BME280;1347;42.122;24.746;2023-02-07T10:24:31;101166.72;;;10.35;26.84
2675;BME280;1347;42.122;24.746;2023-02-07T10:27:08;101158.09;;;10.53;26.76
2675;BME280;1347;42.122;24.746;2023-02-07T10:29:47;101151.69;;;11.50;25.71
2675;BME280;1347;42.122;24.746;2023-02-07T10:32:20;101155.22;;;12.73;25.57
2675;BME280;1347;42.122;24.746;2023-02-07T10:34:49;101147.28;;;12.23;24.51
2675;BME280;1347;42.122;24.746;2023-02-07T10:37:21;101145.91;;;10.72;25.77
2675;BME280;1347;42.122;24.746;2023-02-07T10:39:53;101155.47;;;10.27;26.89
2675;BME280;1347;42.122;24.746;2023-02-07T10:42:24;101157.56;;;10.05;27.05
2675;BME280;1347;42.122;24.746;2023-02-07T10:44:52;101150.03;;;9.67;26.98
2675;BME280;1347;42.122;24.746;2023-02-07T10:47:19;101156.47;;;9.80;27.30
2675;BME280;1347;42.122;24.746;2023-02-07T10:49:50;101149.38;;;9.79;26.46
2675;BME280;1347;42.122;24.746;2023-02-07T10:52:35;101141.38;;;11.47;25.87
2675;BME280;1347;42.122;24.746;2023-02-07T10:55:04;101139.25;;;13.40;24.57
2675;BME280;1347;42.122;24.746;2023-02-07T10:57:32;101132.78;;;12.59;24.36
2675;BME280;1347;42.122;24.746;2023-02-07T11:00:03;101136.28;;;10.27;26.17
2675;BME280;1347;42.122;24.746;2023-02-07T11:02:49;101135.56;;;9.58;27.08
2675;BME280;1347;42.122;24.746;2023-02-07T11:05:38;101133.63;;;9.33;26.99
2675;BME280;1347;42.122;24.746;2023-02-07T11:08:18;101136.50;;;9.10;27.46
2675;BME280;1347;42.122;24.746;2023-02-07T11:10:48;101136.88;;;10.33;27.14
2675;BME280;1347;42.122;24.746;2023-02-07T11:13:18;101133.22;;;11.71;25.82
2675;BME280;1347;42.122;24.746;2023-02-07T11:15:49;101138.16;;;12.80;24.60
2675;BME280;1347;42.122;24.746;2023-02-07T11:18:27;101128.78;;;11.04;25.12
2675;BME280;1347;42.122;24.746;2023-02-07T11:20:58;101121.84;;;11.27;25.37
2675;BME280;1347;42.122;24.746;2023-02-07T11:23:26;101123.97;;;11.22;25.52
2675;BME280;1347;42.122;24.746;2023-02-07T11:25:54;101128.66;;;9.35;26.56
2675;BME280;1347;42.122;24.746;2023-02-07T11:28:24;101119.19;;;10.22;26.45
2675;BME280;1347;42.122;24.746;2023-02-07T11:30:54;101106.16;;;10.57;26.61
2675;BME280;1347;42.122;24.746;2023-02-07T11:33:26;101110.47;;;12.03;25.30
2675;BME280;1347;42.122;24.746;2023-02-07T11:36:10;101106.03;;;13.20;24.19
2675;BME280;1347;42.122;24.746;2023-02-07T11:38:42;101104.63;;;13.82;23.46
2675;BME280;1347;42.122;24.746;2023-02-07T11:41:20;101096.34;;;13.54;23.88
2675;BME280;1347;42.122;24.746;2023-02-07T11:43:57;101101.84;;;12.50;24.03
2675;BME280;1347;42.122;24.746;2023-02-07T11:46:31;101099.50;;;11.70;24.76
2675;BME280;1347;42.122;24.746;2023-02-07T11:49:00;101094.44;;;10.48;26.08
2675;BME280;1347;42.122;24.746;2023-02-07T11:51:28;101093.69;;;9.49;27.15
2675;BME280;1347;42.122;24.746;2023-02-07T11:54:01;101090.13;;;8.88;27.28
2675;BME280;1347;42.122;24.746;2023-02-07T11:56:31;101094.84;;;8.08;28.16
2675;BME280;1347;42.122;24.746;2023-02-07T11:59:03;101086.03;;;7.58;28.88
2675;BME280;1347;42.122;24.746;2023-02-07T12:01:32;101085.38;;;7.53;29.05
2675;BME280;1347;42.122;24.746;2023-02-07T12:04:06;101084.16;;;7.67;28.89
2675;BME280;1347;42.122;24.746;2023-02-07T12:06:38;101076.63;;;9.52;27.73
2675;BME280;1347;42.122;24.746;2023-02-07T12:09:19;101074.53;;;10.21;26.66
2675;BME280;1347;42.122;24.746;2023-02-07T12:11:48;101063.91;;;10.20;26.32
2675;BME280;1347;42.122;24.746;2023-02-07T12:14:21;101066.84;;;11.36;25.56
2675;BME280;1347;42.122;24.746;2023-02-07T12:16:53;101052.56;;;14.40;23.07
2675;BME280;1347;42.122;24.746;2023-02-07T12:19:24;101057.69;;;14.57;22.25
2675;BME280;1347;42.122;24.746;2023-02-07T12:21:58;101050.41;;;14.65;22.86
2675;BME280;1347;42.122;24.746;2023-02-07T12:24:31;101051.91;;;13.00;24.16
2675;BME280;1347;42.122;24.746;2023-02-07T12:27:05;101058.25;;;11.58;24.91
2675;BME280;1347;42.122;24.746;2023-02-07T12:29:48;101053.09;;;10.53;26.15
2675;BME280;1347;42.122;24.746;2023-02-07T12:32:22;101051.22;;;9.98;26.59
2675;BME280;1347;42.122;24.746;2023-02-07T12:34:56;101053.47;;;9.32;27.12
2675;BME280;1347;42.122;24.746;2023-02-07T12:37:33;101056.16;;;8.55;27.87
2675;BME280;1347;42.122;24.746;2023-02-07T12:40:14;101054.22;;;8.16;28.26
2675;BME280;1347;42.122;24.746;2023-02-07T12:42:50;101049.44;;;7.59;29.04
2675;BME280;1347;42.122;24.746;2023-02-07T12:45:31;101054.22;;;7.09;29.34
2675;BME280;1347;42.122;24.746;2023-02-07T12:48:07;101060.66;;;6.91;30.45
2675;BME280;1347;42.122;24.746;2023-02-07T12:50:52;101054.78;;;6.97;30.51
2675;BME280;1347;42.122;24.746;2023-02-07T12:53:38;101052.28;;;6.87;30.96
2675;BME280;1347;42.122;24.746;2023-02-07T12:56:19;101058.16;;;6.81;30.95
2675;BME280;1347;42.122;24.746;2023-02-07T12:58:58;101056.47;;;6.71;30.77
2675;BME280;1347;42.122;24.746;2023-02-07T13:01:34;101063.91;;;6.65;30.70
2675;BME280;1347;42.122;24.746;2023-02-07T13:07:12;101056.09;;;6.23;30.94
2675;BME280;1347;42.122;24.746;2023-02-07T13:09:48;101058.69;;;6.01;31.45
2675;BME280;1347;42.122;24.746;2023-02-07T13:12:22;101058.50;;;5.97;31.61
2675;BME280;1347;42.122;24.746;2023-02-07T13:15:00;101050.63;;;5.96;31.76
2675;BME280;1347;42.122;24.746;2023-02-07T13:17:43;101058.63;;;6.19;31.56
2675;BME280;1347;42.122;24.746;2023-02-07T13:20:21;101055.66;;;6.02;31.22
2675;BME280;1347;42.122;24.746;2023-02-07T13:22:55;101060.50;;;5.91;31.67
2675;BME280;1347;42.122;24.746;2023-02-07T13:25:28;101056.28;;;5.99;31.83
2675;BME280;1347;42.122;24.746;2023-02-07T13:28:02;101059.13;;;6.08;31.77
2675;BME280;1347;42.122;24.746;2023-02-07T13:30:31;101058.25;;;5.80;31.85
2675;BME280;1347;42.122;24.746;2023-02-07T13:33:04;101054.38;;;6.00;31.94
2675;BME280;1347;42.122;24.746;2023-02-07T13:35:39;101061.75;;;5.99;31.72